createdAt,value
2022-12-28T00:01:52.443Z,101001.84
2022-12-28T00:04:20.503Z,101013.50
2022-12-28T00:06:51.371Z,101024.19
2022-12-28T00:09:19.281Z,101030.44
2022-12-28T00:11:48.004Z,101029.69
2022-12-28T00:14:16.012Z,101025.19
2022-12-28T00:16:44.112Z,101014.53
2022-12-28T00:19:13.343Z,101011.94
2022-12-28T00:21:41.449Z,101027.00
2022-12-28T00:24:09.791Z,101039.44
2022-12-28T00:26:37.716Z,101037.63
2022-12-28T00:29:05.957Z,101040.41
2022-12-28T00:31:35.174Z,101024.72
2022-12-28T00:34:03.874Z,101021.47
2022-12-28T00:37:08.970Z,101030.44
2022-12-28T00:39:21.236Z,101035.91
2022-12-28T00:41:49.250Z,101036.03
2022-12-28T00:44:17.172Z,101063.69
2022-12-28T00:46:45.142Z,101076.16
2022-12-28T00:49:13.113Z,101064.81
2022-12-28T00:51:41.090Z,101040.16
2022-12-28T00:54:09.063Z,101049.16
2022-12-28T00:56:37.061Z,101058.19
2022-12-28T00:59:04.999Z,101064.47
2022-12-28T01:01:33.076Z,101061.03
2022-12-28T01:04:01.139Z,101057.69
2022-12-28T01:06:29.628Z,101056.88
2022-12-28T01:08:57.752Z,101049.00
2022-12-28T01:11:27.257Z,101049.09
2022-12-28T01:13:56.508Z,101064.22
2022-12-28T01:16:27.566Z,101053.69
2022-12-28T01:18:56.586Z,101060.09
2022-12-28T01:21:25.790Z,101062.81
2022-12-28T01:23:58.668Z,101057.56
2022-12-28T01:26:27.031Z,101037.31
2022-12-28T01:28:55.186Z,101029.47
2022-12-28T01:31:23.767Z,101057.97
2022-12-28T01:33:51.857Z,101068.69
2022-12-28T01:36:23.985Z,101085.66
2022-12-28T01:38:59.220Z,101084.94
2022-12-28T01:41:28.517Z,101087.72
2022-12-28T01:43:56.428Z,101092.31
2022-12-28T01:46:26.430Z,101087.16
2022-12-28T01:49:12.674Z,101077.50
2022-12-28T01:51:53.711Z,101056.41
2022-12-28T01:54:23.336Z,101058.22
2022-12-28T01:56:52.210Z,101064.44
2022-12-28T01:59:21.614Z,101065.41
2022-12-28T02:01:49.978Z,101053.03
2022-12-28T02:04:18.833Z,101050.44
2022-12-28T02:06:47.383Z,101074.41
2022-12-28T02:09:20.808Z,101075.28
2022-12-28T02:11:49.704Z,101070.84
2022-12-28T02:14:18.918Z,101067.44
2022-12-28T02:16:47.007Z,101098.53
2022-12-28T02:19:17.809Z,101124.28
2022-12-28T02:21:48.443Z,101118.31
2022-12-28T02:24:34.576Z,101145.13
2022-12-28T02:27:05.447Z,101163.88
2022-12-28T02:29:51.972Z,101163.97
2022-12-28T02:32:19.954Z,101178.16
2022-12-28T02:34:54.214Z,101172.13
2022-12-28T02:37:34.088Z,101166.06
2022-12-28T02:40:08.923Z,101162.63
2022-12-28T02:42:37.564Z,101165.38
2022-12-28T02:45:24.475Z,101176.06
2022-12-28T02:48:11.512Z,101182.34
2022-12-28T02:51:02.574Z,101197.47
2022-12-28T02:53:52.584Z,101208.13
2022-12-28T02:56:29.613Z,101191.41
2022-12-28T02:59:16.599Z,101204.72
2022-12-28T03:02:01.045Z,101209.28
2022-12-28T03:04:41.597Z,101201.38
2022-12-28T03:07:30.899Z,101212.09
2022-12-28T03:10:17.233Z,101230.69
2022-12-28T03:12:57.577Z,101228.09
2022-12-28T03:15:31.465Z,101228.19
2022-12-28T03:18:26.587Z,101243.19
2022-12-28T03:21:14.689Z,101228.28
2022-12-28T03:24:02.352Z,101235.47
2022-12-28T03:26:51.842Z,101243.47
2022-12-28T03:29:39.839Z,101237.19
2022-12-28T03:32:08.166Z,101252.13
2022-12-28T03:34:36.271Z,101258.19
2022-12-28T03:37:10.570Z,101262.66
2022-12-28T03:39:38.573Z,101259.16
2022-12-28T03:42:30.741Z,101260.13
2022-12-28T03:45:02.999Z,101261.97
2022-12-28T03:47:33.409Z,101269.13
2022-12-28T03:50:01.442Z,101270.91
2022-12-28T03:52:29.563Z,101263.81
2022-12-28T03:54:57.475Z,101249.63
2022-12-28T03:57:25.411Z,101246.13
2022-12-28T03:59:53.299Z,101254.03
2022-12-28T04:02:21.483Z,101243.47
2022-12-28T04:04:49.678Z,101237.34
2022-12-28T04:07:17.770Z,101240.97
2022-12-28T04:09:45.775Z,101241.84
2022-12-28T04:12:15.530Z,101245.41
2022-12-28T04:14:43.530Z,101256.09
2022-12-28T04:17:11.539Z,101259.75
2022-12-28T04:19:44.369Z,101267.69
2022-12-28T04:22:12.439Z,101292.47
2022-12-28T04:24:40.331Z,101292.47
2022-12-28T04:27:08.373Z,101284.53
2022-12-28T04:29:36.396Z,101288.03
2022-12-28T04:32:04.425Z,101292.47
2022-12-28T04:34:32.505Z,101294.31
2022-12-28T04:37:00.495Z,101300.53
2022-12-28T04:39:28.649Z,101297.00
2022-12-28T04:42:16.635Z,101298.84
2022-12-28T04:44:44.659Z,101303.28
2022-12-28T04:47:12.611Z,101309.44
2022-12-28T04:49:40.612Z,101313.00
2022-12-28T04:52:09.081Z,101316.53
2022-12-28T04:54:37.005Z,101307.66
2022-12-28T04:57:05.047Z,101316.53
2022-12-28T04:59:33.062Z,101319.13
2022-12-28T05:02:01.119Z,101321.78
2022-12-28T05:04:29.249Z,101315.53
2022-12-28T05:06:57.147Z,101316.44
2022-12-28T05:09:25.321Z,101326.16
2022-12-28T05:11:53.410Z,101323.47
2022-12-28T05:14:21.470Z,101319.03
2022-12-28T05:16:52.227Z,101319.97
2022-12-28T05:19:20.170Z,101336.78
2022-12-28T05:21:48.181Z,101342.94
2022-12-28T05:24:16.061Z,101343.91
2022-12-28T05:26:44.006Z,101348.28
2022-12-28T05:29:12.006Z,101349.25
2022-12-28T05:31:40.056Z,101354.59
2022-12-28T05:34:08.041Z,101347.59
2022-12-28T05:36:38.813Z,101349.41
2022-12-28T05:39:06.967Z,101347.69
2022-12-28T05:41:34.939Z,101344.13
2022-12-28T05:44:03.061Z,101349.38
2022-12-28T05:46:32.698Z,101350.25
2022-12-28T05:49:01.285Z,101345.06
2022-12-28T05:51:30.548Z,101356.56
2022-12-28T05:53:59.857Z,101348.59
2022-12-28T05:56:29.086Z,101349.56
2022-12-28T05:59:01.886Z,101344.38
2022-12-28T06:01:31.561Z,101340.91
2022-12-28T06:04:01.486Z,101340.91
2022-12-28T06:06:30.079Z,101343.59
2022-12-28T06:08:58.803Z,101344.50
2022-12-28T06:11:27.943Z,101344.50
2022-12-28T06:13:56.486Z,101350.72
2022-12-28T06:16:25.625Z,101348.06
2022-12-28T06:18:53.616Z,101356.00
2022-12-28T06:21:23.091Z,101348.13
2022-12-28T06:23:51.667Z,101357.88
2022-12-28T06:26:22.175Z,101360.66
2022-12-28T06:28:50.963Z,101361.63
2022-12-28T06:31:20.141Z,101360.88
2022-12-28T06:33:48.619Z,101356.53
2022-12-28T06:36:20.628Z,101361.00
2022-12-28T06:38:49.639Z,101365.50
2022-12-28T06:41:18.483Z,101367.31
2022-12-28T06:43:46.737Z,101370.03
2022-12-28T06:46:15.573Z,101371.78
2022-12-28T06:48:43.665Z,101362.94
2022-12-28T06:51:13.498Z,101377.09
2022-12-28T06:53:41.405Z,101378.94
2022-12-28T06:56:11.564Z,101378.16
2022-12-28T06:58:39.858Z,101387.03
2022-12-28T07:01:18.491Z,101388.06
2022-12-28T07:03:47.171Z,101382.84
2022-12-28T07:06:16.661Z,101379.38
2022-12-28T07:08:45.046Z,101383.84
2022-12-28T07:11:14.399Z,101372.47
2022-12-28T07:13:42.865Z,101384.81
2022-12-28T07:16:15.421Z,101381.31
2022-12-28T07:18:43.554Z,101387.56
2022-12-28T07:21:15.699Z,101380.56
2022-12-28T07:23:44.075Z,101384.19
2022-12-28T07:26:13.436Z,101396.56
2022-12-28T07:28:42.869Z,101391.25
2022-12-28T07:31:12.107Z,101385.97
2022-12-28T07:33:40.049Z,101387.75
2022-12-28T07:36:09.267Z,101388.63
2022-12-28T07:38:37.282Z,101385.06
2022-12-28T07:41:06.576Z,101382.50
2022-12-28T07:43:35.074Z,101379.06
2022-12-28T07:46:07.733Z,101385.34
2022-12-28T07:48:36.377Z,101381.88
2022-12-28T07:51:15.334Z,101381.97
2022-12-28T07:53:44.245Z,101386.41
2022-12-28T07:56:12.798Z,101378.50
2022-12-28T08:01:09.288Z,101382.09
2022-12-28T08:03:37.436Z,101380.31
2022-12-28T08:06:06.445Z,101382.16
2022-12-28T08:08:38.089Z,101383.09
2022-12-28T08:11:16.544Z,101396.31
2022-12-28T08:13:45.469Z,101401.63
2022-12-28T08:16:14.145Z,101392.03
2022-12-28T08:18:42.573Z,101398.22
2022-12-28T08:21:14.867Z,101402.69
2022-12-28T08:23:43.068Z,101396.59
2022-12-28T08:26:12.678Z,101402.75
2022-12-28T08:28:41.455Z,101393.97
2022-12-28T08:31:12.642Z,101401.03
2022-12-28T08:33:40.800Z,101405.47
2022-12-28T08:36:10.106Z,101400.28
2022-12-28T08:38:38.701Z,101401.22
2022-12-28T08:41:08.169Z,101403.84
2022-12-28T08:43:37.014Z,101403.03
2022-12-28T08:46:05.056Z,101405.72
2022-12-28T08:48:33.710Z,101396.06
2022-12-28T08:51:05.606Z,101398.72
2022-12-28T08:53:34.008Z,101397.03
2022-12-28T08:56:21.300Z,101399.69
2022-12-28T08:58:50.261Z,101395.28
2022-12-28T09:01:25.855Z,101393.53
2022-12-28T09:03:55.052Z,101389.13
2022-12-28T09:06:27.690Z,101383.84
2022-12-28T09:09:05.512Z,101380.31
2022-12-28T09:11:38.404Z,101375.03
2022-12-28T09:14:07.327Z,101373.28
2022-12-28T09:16:35.781Z,101364.50
2022-12-28T09:19:04.491Z,101362.75
2022-12-28T09:21:34.370Z,101355.75
2022-12-28T09:24:02.828Z,101357.53
2022-12-28T09:26:32.742Z,101342.59
2022-12-28T09:29:04.811Z,101342.63
2022-12-28T09:31:34.072Z,101343.53
2022-12-28T09:34:35.124Z,101342.69
2022-12-28T09:36:52.929Z,101342.75
2022-12-28T09:39:23.106Z,101343.66
2022-12-28T09:41:56.791Z,101341.03
2022-12-28T09:44:37.149Z,101347.22
2022-12-28T09:47:18.824Z,101336.72
2022-12-28T09:50:02.266Z,101337.63
2022-12-28T09:52:35.383Z,101336.84
2022-12-28T09:55:14.093Z,101342.13
2022-12-28T09:57:46.091Z,101340.38
2022-12-28T10:00:21.161Z,101346.50
2022-12-28T10:03:18.134Z,101358.81
2022-12-28T10:05:46.564Z,101346.56
2022-12-28T10:08:16.807Z,101346.56
2022-12-28T10:10:48.677Z,101344.84
2022-12-28T10:13:52.918Z,101348.34
2022-12-28T10:16:17.086Z,101351.00
2022-12-28T10:18:45.099Z,101336.06
2022-12-28T10:21:13.319Z,101337.84
2022-12-28T10:24:12.113Z,101330.81
2022-12-28T10:26:30.096Z,101336.94
2022-12-28T10:29:02.202Z,101332.56
2022-12-28T10:31:34.315Z,101330.00
2022-12-28T10:34:02.759Z,101332.66
2022-12-28T10:36:37.449Z,101334.47
2022-12-28T10:39:05.785Z,101338.88
2022-12-28T10:41:41.769Z,101338.88
2022-12-28T10:44:45.720Z,101338.91
2022-12-28T10:47:06.491Z,101339.81
2022-12-28T10:49:38.979Z,101338.91
2022-12-28T10:52:15.849Z,101339.81
2022-12-28T10:54:44.758Z,101337.19
2022-12-28T10:57:21.611Z,101335.44
2022-12-28T10:59:50.740Z,101333.75
2022-12-28T11:02:23.918Z,101325.84
2022-12-28T11:04:56.289Z,101321.41
2022-12-28T11:07:32.333Z,101312.66
2022-12-28T11:10:18.568Z,101319.66
2022-12-28T11:12:46.893Z,101325.84
2022-12-28T11:15:16.207Z,101327.63
2022-12-28T11:17:44.653Z,101329.41
2022-12-28T11:20:12.491Z,101334.69
2022-12-28T11:22:40.495Z,101332.97
2022-12-28T11:25:09.072Z,101327.72
2022-12-28T11:27:37.444Z,101332.97
2022-12-28T11:30:05.923Z,101320.66
2022-12-28T11:32:39.351Z,101330.34
2022-12-28T11:35:07.970Z,101324.16
2022-12-28T11:37:35.848Z,101322.44
2022-12-28T11:40:03.828Z,101325.09
2022-12-28T11:42:39.610Z,101333.84
2022-12-28T11:45:18.251Z,101336.50
2022-12-28T11:47:46.751Z,101336.53
2022-12-28T11:50:33.610Z,101332.16
2022-12-28T11:53:02.447Z,101344.50
2022-12-28T11:55:42.349Z,101345.38
2022-12-28T11:58:28.323Z,101350.66
2022-12-28T12:00:57.545Z,101353.28
2022-12-28T12:03:44.362Z,101362.06
2022-12-28T12:06:12.329Z,101366.47
2022-12-28T12:08:41.290Z,101362.97
2022-12-28T12:11:27.687Z,101364.72
2022-12-28T12:13:56.439Z,101360.31
2022-12-28T12:16:28.987Z,101372.63
2022-12-28T12:18:58.570Z,101365.63
2022-12-28T12:21:26.549Z,101359.50
2022-12-28T12:23:59.011Z,101357.72
2022-12-28T12:26:39.053Z,101352.47
2022-12-28T12:29:18.845Z,101348.97
2022-12-28T12:32:15.798Z,101356.88
2022-12-28T12:34:49.296Z,101356.84
2022-12-28T12:37:35.701Z,101359.50
2022-12-28T12:40:17.926Z,101358.63
2022-12-28T12:42:45.916Z,101359.50
2022-12-28T12:45:36.369Z,101366.53
2022-12-28T12:48:22.826Z,101377.09
2022-12-28T12:50:59.887Z,101383.25
2022-12-28T12:53:51.861Z,101377.97
2022-12-28T12:56:19.824Z,101378.91
2022-12-28T12:59:10.569Z,101373.63
2022-12-28T13:01:45.401Z,101373.63
2022-12-28T13:04:19.529Z,101379.78
2022-12-28T13:06:47.949Z,101382.44
2022-12-28T13:09:18.209Z,101388.56
2022-12-28T13:11:46.443Z,101377.16
2022-12-28T13:14:21.795Z,101375.41
2022-12-28T13:16:54.041Z,101374.53
2022-12-28T13:19:24.175Z,101375.41
2022-12-28T13:21:53.081Z,101378.03
2022-12-28T13:24:28.445Z,101383.31
2022-12-28T13:26:57.135Z,101384.19
2022-12-28T13:29:51.221Z,101384.19
2022-12-28T13:32:36.047Z,101396.47
2022-12-28T13:35:17.743Z,101396.47
2022-12-28T13:37:59.194Z,101406.13
2022-12-28T13:40:27.208Z,101402.59
2022-12-28T13:43:18.095Z,101413.13
2022-12-28T13:45:50.885Z,101421.91
2022-12-28T13:48:19.209Z,101416.66
2022-12-28T13:50:47.217Z,101417.53
2022-12-28T13:53:21.772Z,101424.53
2022-12-28T13:55:51.359Z,101429.78
2022-12-28T13:58:39.370Z,101427.16
2022-12-28T14:01:10.192Z,101430.69
2022-12-28T14:03:43.372Z,101440.31
2022-12-28T14:06:18.119Z,101435.94
2022-12-28T14:08:46.903Z,101443.81
2022-12-28T14:11:15.044Z,101436.78
2022-12-28T14:13:43.219Z,101443.81
2022-12-28T14:16:11.617Z,101434.19
2022-12-28T14:18:40.015Z,101435.91
2022-12-28T14:21:08.174Z,101435.94
2022-12-28T14:23:37.458Z,101439.44
2022-12-28T14:26:06.891Z,101435.94
2022-12-28T14:28:37.940Z,101436.78
2022-12-28T14:31:06.935Z,101438.56
2022-12-28T14:33:39.687Z,101442.06
2022-12-28T14:36:09.270Z,101449.94
2022-12-28T14:38:41.118Z,101449.06
2022-12-28T14:41:18.029Z,101455.22
2022-12-28T14:43:52.027Z,101450.81
2022-12-28T14:46:30.258Z,101451.69
2022-12-28T14:48:58.557Z,101450.81
2022-12-28T14:51:31.512Z,101452.56
2022-12-28T14:54:25.460Z,101458.72
2022-12-28T14:56:55.809Z,101466.56
2022-12-28T14:59:35.833Z,101468.34
2022-12-28T15:02:04.616Z,101461.34
2022-12-28T15:04:40.012Z,101471.88
2022-12-28T15:07:09.567Z,101484.13
2022-12-28T15:09:37.569Z,101493.75
2022-12-28T15:12:13.125Z,101499.88
2022-12-28T15:14:41.132Z,101493.75
2022-12-28T15:17:09.844Z,101496.38
2022-12-28T15:19:38.038Z,101488.47
2022-12-28T15:22:06.419Z,101494.63
2022-12-28T15:24:35.162Z,101492.88
2022-12-28T15:27:06.258Z,101499.88
2022-12-28T15:32:22.220Z,101504.25
2022-12-28T15:34:50.250Z,101511.25
2022-12-28T15:37:18.266Z,101512.09
2022-12-28T15:39:46.252Z,101512.13
2022-12-28T15:42:14.292Z,101510.38
2022-12-28T15:44:42.253Z,101516.53
2022-12-28T15:47:10.309Z,101520.94
2022-12-28T15:49:38.353Z,101524.44
2022-12-28T15:52:06.301Z,101522.66
2022-12-28T15:54:34.284Z,101519.16
2022-12-28T15:57:02.417Z,101525.31
2022-12-28T15:59:30.357Z,101524.47
2022-12-28T16:01:58.394Z,101528.84
2022-12-28T16:04:26.397Z,101529.75
2022-12-28T16:06:54.385Z,101533.25
2022-12-28T16:09:22.570Z,101531.50
2022-12-28T16:11:55.079Z,101536.78
2022-12-28T16:14:24.027Z,101525.41
2022-12-28T16:16:52.513Z,101518.38
2022-12-28T16:19:20.951Z,101523.63
2022-12-28T16:21:52.037Z,101531.53
2022-12-28T16:24:21.145Z,101528.91
2022-12-28T16:26:49.131Z,101528.91
2022-12-28T16:29:17.151Z,101528.91
2022-12-28T16:31:45.235Z,101535.91
2022-12-28T16:34:15.181Z,101531.53
2022-12-28T16:36:43.789Z,101521.00
2022-12-28T16:39:14.269Z,101514.88
2022-12-28T16:41:42.444Z,101518.38
2022-12-28T16:44:15.335Z,101517.50
2022-12-28T16:46:43.526Z,101525.41
2022-12-28T16:49:12.282Z,101524.50
2022-12-28T16:51:41.294Z,101531.53
2022-12-28T16:54:09.879Z,101528.88
2022-12-28T16:56:37.774Z,101531.53
2022-12-28T16:59:05.662Z,101531.47
2022-12-28T17:01:33.722Z,101532.31
2022-12-28T17:04:04.066Z,101533.19
2022-12-28T17:06:32.614Z,101537.53
2022-12-28T17:09:02.578Z,101527.88
2022-12-28T17:11:31.031Z,101535.75
2022-12-28T17:14:06.418Z,101530.47
2022-12-28T17:16:34.914Z,101538.34
2022-12-28T17:19:02.902Z,101532.19
2022-12-28T17:21:31.056Z,101533.03
2022-12-28T17:23:59.354Z,101533.03
2022-12-28T17:26:27.799Z,101534.78
2022-12-28T17:28:55.834Z,101527.69
2022-12-28T17:31:24.488Z,101527.69
2022-12-28T17:33:58.728Z,101532.94
2022-12-28T17:36:26.878Z,101534.63
2022-12-28T17:38:54.887Z,101529.28
2022-12-28T17:41:24.697Z,101524.88
2022-12-28T17:43:56.964Z,101524.78
2022-12-28T17:46:27.114Z,101528.22
2022-12-28T17:48:56.024Z,101521.13
2022-12-28T17:51:26.335Z,101526.34
2022-12-28T17:53:55.794Z,101520.13
2022-12-28T17:56:23.719Z,101520.06
2022-12-28T17:58:54.452Z,101515.63
2022-12-28T18:01:22.885Z,101506.75
2022-12-28T18:03:50.910Z,101498.78
2022-12-28T18:06:18.895Z,101495.16
2022-12-28T18:08:46.909Z,101490.69
2022-12-28T18:11:14.841Z,101490.56
2022-12-28T18:13:43.479Z,101486.97
2022-12-28T18:16:14.037Z,101483.34
2022-12-28T18:18:42.258Z,101481.47
2022-12-28T18:21:17.905Z,101472.56
2022-12-28T18:23:49.932Z,101477.72
2022-12-28T18:26:20.824Z,101478.47
2022-12-28T18:28:49.152Z,101481.88
2022-12-28T18:31:17.230Z,101478.25
2022-12-28T18:33:45.225Z,101476.38
2022-12-28T18:36:17.774Z,101482.44
2022-12-28T18:38:46.912Z,101486.78
2022-12-28T18:41:16.497Z,101493.78
2022-12-28T18:43:44.435Z,101491.97
2022-12-28T18:46:12.666Z,101491.94
2022-12-28T18:48:41.610Z,101491.88
2022-12-28T18:51:14.360Z,101491.84
2022-12-28T18:53:42.778Z,101479.44
2022-12-28T18:56:13.131Z,101487.31
2022-12-28T18:58:41.636Z,101481.09
2022-12-28T19:01:25.897Z,101485.47
2022-12-28T19:04:01.752Z,101477.50
2022-12-28T19:06:31.166Z,101479.25
2022-12-28T19:09:00.494Z,101483.59
2022-12-28T19:11:28.894Z,101475.59
2022-12-28T19:13:57.063Z,101469.41
2022-12-28T19:16:30.980Z,101465.88
2022-12-28T19:18:59.435Z,101464.91
2022-12-28T19:21:32.014Z,101460.41
2022-12-28T19:24:04.000Z,101457.63
2022-12-28T19:26:33.391Z,101460.16
2022-12-28T19:29:01.468Z,101452.91
2022-12-28T19:31:29.462Z,101459.84
2022-12-28T19:33:57.470Z,101456.19
2022-12-28T19:36:28.630Z,101460.44
2022-12-28T19:38:57.458Z,101459.44
2022-12-28T19:41:26.136Z,101461.06
2022-12-28T19:43:54.127Z,101452.91
2022-12-28T19:46:32.392Z,101451.91
2022-12-28T19:49:01.477Z,101442.97
2022-12-28T19:51:31.917Z,101442.88
2022-12-28T19:54:01.012Z,101437.47
2022-12-28T19:56:29.265Z,101444.47
2022-12-28T19:59:05.131Z,101451.41
2022-12-28T20:01:34.530Z,101453.88
2022-12-28T20:04:07.226Z,101446.72
2022-12-28T20:06:40.630Z,101435.25
2022-12-28T20:09:08.630Z,101436.97
2022-12-28T20:11:37.095Z,101436.78
2022-12-28T20:14:05.282Z,101446.31
2022-12-28T20:16:34.541Z,101430.25
2022-12-28T20:19:03.036Z,101439.16
2022-12-28T20:21:31.381Z,101425.97
2022-12-28T20:24:01.616Z,101419.72
2022-12-28T20:26:30.264Z,101406.44
2022-12-28T20:28:59.324Z,101407.09
2022-12-28T20:31:28.282Z,101402.44
2022-12-28T20:33:56.471Z,101391.59
2022-12-28T20:36:28.338Z,101386.16
2022-12-28T20:38:56.833Z,101380.78
2022-12-28T20:41:44.441Z,101376.22
2022-12-28T20:44:13.933Z,101377.66
2022-12-28T20:46:43.184Z,101378.22
2022-12-28T20:49:11.222Z,101373.66
2022-12-28T20:51:39.188Z,101372.00
2022-12-28T20:54:07.225Z,101365.91
2022-12-28T20:56:39.231Z,101363.22
2022-12-28T20:59:07.397Z,101362.34
2022-12-28T21:01:35.669Z,101343.78
2022-12-28T21:04:03.926Z,101335.69
2022-12-28T21:06:31.881Z,101323.22
2022-12-28T21:09:00.184Z,101318.59
2022-12-28T21:11:29.757Z,101314.16
2022-12-28T21:13:57.891Z,101299.00
2022-12-28T21:16:26.305Z,101292.88
2022-12-28T21:18:54.388Z,101291.03
2022-12-28T21:21:25.609Z,101288.56
2022-12-28T21:23:56.195Z,101289.41
2022-12-28T21:26:24.277Z,101290.28
2022-12-28T21:28:52.258Z,101284.03
2022-12-28T21:31:20.397Z,101283.03
2022-12-28T21:33:48.428Z,101281.25
2022-12-28T21:36:17.614Z,101279.44
2022-12-28T21:38:46.674Z,101267.81
2022-12-28T21:41:38.755Z,101271.25
2022-12-28T21:44:07.298Z,101264.06
2022-12-28T21:46:35.436Z,101257.88
2022-12-28T21:49:06.040Z,101249.84
2022-12-28T21:51:38.398Z,101251.50
2022-12-28T21:54:07.717Z,101246.09
2022-12-28T21:56:36.350Z,101238.00
2022-12-28T21:59:04.568Z,101242.19
2022-12-28T22:01:51.013Z,101240.09
2022-12-28T22:04:38.280Z,101228.09
2022-12-28T22:07:07.331Z,101214.66
2022-12-28T22:09:54.564Z,101223.31
2022-12-28T22:12:38.384Z,101230.28
2022-12-28T22:15:26.205Z,101226.78
2022-12-28T22:17:55.867Z,101234.91
2022-12-28T22:20:24.332Z,101246.28
2022-12-28T22:22:52.343Z,101241.81
2022-12-28T22:25:20.281Z,101241.84
2022-12-28T22:27:48.170Z,101241.94
2022-12-28T22:30:16.171Z,101248.22
2022-12-28T22:32:44.165Z,101249.22
2022-12-28T22:35:12.327Z,101243.84
2022-12-28T22:37:40.330Z,101258.78
2022-12-28T22:40:08.826Z,101246.28
2022-12-28T22:42:40.695Z,101244.56
2022-12-28T22:45:09.617Z,101252.38
2022-12-28T22:47:37.520Z,101249.66
2022-12-28T22:50:05.945Z,101248.81
2022-12-28T22:52:34.012Z,101245.25
2022-12-28T22:55:02.411Z,101249.63
2022-12-28T22:57:30.371Z,101254.13
2022-12-28T22:59:58.260Z,101251.53
2022-12-28T23:02:26.404Z,101253.31
2022-12-28T23:04:54.429Z,101251.59
2022-12-28T23:07:22.313Z,101248.09
2022-12-28T23:09:50.251Z,101260.53
2022-12-28T23:12:18.136Z,101257.97
2022-12-28T23:15:04.366Z,101261.59
2022-12-28T23:17:32.263Z,101252.84
2022-12-28T23:20:18.410Z,101262.75
2022-12-28T23:23:04.971Z,101264.63
2022-12-28T23:25:51.315Z,101258.59
2022-12-28T23:28:19.537Z,101265.84
2022-12-28T23:30:49.153Z,101262.38
2022-12-28T23:33:17.753Z,101271.22
2022-12-28T23:35:46.102Z,101276.59
2022-12-28T23:38:14.204Z,101276.69
2022-12-28T23:40:42.965Z,101290.97
2022-12-28T23:43:10.903Z,101286.66
2022-12-28T23:45:38.900Z,101288.53
2022-12-28T23:48:06.905Z,101299.22
2022-12-28T23:50:34.887Z,101294.03
2022-12-28T23:53:02.901Z,101307.47
2022-12-28T23:55:30.884Z,101304.94
2022-12-28T23:57:58.895Z,101299.69
